createdAt,value
2023-04-28T00:00:12.855Z,99.98
2023-04-28T00:02:40.275Z,100.00
2023-04-28T00:05:08.184Z,99.96
2023-04-28T00:07:35.423Z,99.67
2023-04-28T00:10:02.563Z,98.71
2023-04-28T00:12:29.684Z,99.06
2023-04-28T00:14:56.833Z,99.80
2023-04-28T00:17:23.958Z,98.55
2023-04-28T00:19:51.254Z,98.29
2023-04-28T00:22:18.998Z,98.39
2023-04-28T00:24:46.146Z,98.21
2023-04-28T00:27:13.165Z,98.01
2023-04-28T00:29:40.240Z,98.00
2023-04-28T00:32:07.418Z,97.76
2023-04-28T00:34:37.530Z,97.56
2023-04-28T00:37:04.975Z,98.20
2023-04-28T00:39:32.109Z,97.60
2023-04-28T00:41:59.299Z,97.67
2023-04-28T00:44:26.460Z,97.27
2023-04-28T00:46:54.274Z,97.58
2023-04-28T00:49:21.354Z,97.58
2023-04-28T00:51:48.476Z,97.57
2023-04-28T00:54:16.005Z,97.71
2023-04-28T00:56:46.172Z,97.42
2023-04-28T00:59:13.293Z,97.15
2023-04-28T01:01:40.784Z,97.14
2023-04-28T01:04:08.524Z,97.44
2023-04-28T01:06:37.710Z,97.40
2023-04-28T01:09:06.605Z,97.64
2023-04-28T01:11:33.750Z,97.26
2023-04-28T01:14:11.654Z,97.48
2023-04-28T01:16:40.454Z,97.57
2023-04-28T01:19:08.197Z,97.83
2023-04-28T01:21:36.583Z,98.11
2023-04-28T01:24:11.410Z,98.27
2023-04-28T01:26:38.667Z,98.62
2023-04-28T01:29:05.848Z,98.53
2023-04-28T01:31:33.014Z,98.96
2023-04-28T01:34:00.625Z,99.30
2023-04-28T01:36:28.902Z,99.15
2023-04-28T01:38:56.225Z,99.35
2023-04-28T01:41:23.393Z,99.55
2023-04-28T01:43:51.055Z,99.65
2023-04-28T01:46:18.854Z,99.50
2023-04-28T01:48:46.280Z,99.48
2023-04-28T01:51:13.840Z,99.72
2023-04-28T01:53:41.697Z,99.68
2023-04-28T01:56:08.849Z,99.46
2023-04-28T01:58:36.100Z,99.74
2023-04-28T02:01:03.592Z,99.98
2023-04-28T02:03:31.317Z,100.00
2023-04-28T02:05:59.083Z,100.00
2023-04-28T02:08:26.132Z,100.00
2023-04-28T02:10:53.199Z,100.00
2023-04-28T02:13:21.659Z,100.00
2023-04-28T02:15:48.749Z,100.00
2023-04-28T02:18:16.266Z,100.00
2023-04-28T02:20:43.832Z,100.00
2023-04-28T02:23:11.181Z,100.00
2023-04-28T02:25:38.220Z,100.00
2023-04-28T02:28:05.294Z,100.00
2023-04-28T02:30:34.782Z,100.00
2023-04-28T02:33:01.868Z,100.00
2023-04-28T02:35:29.034Z,100.00
2023-04-28T02:37:56.196Z,100.00
2023-04-28T02:40:23.247Z,100.00
2023-04-28T02:42:50.261Z,100.00
2023-04-28T02:45:17.336Z,100.00
2023-04-28T02:47:44.413Z,100.00
2023-04-28T02:50:11.809Z,100.00
2023-04-28T02:52:38.931Z,100.00
2023-04-28T02:55:06.633Z,100.00
2023-04-28T02:57:33.728Z,100.00
2023-04-28T03:00:00.888Z,100.00
2023-04-28T03:02:30.746Z,100.00
2023-04-28T03:04:58.023Z,100.00
2023-04-28T03:07:25.203Z,100.00
2023-04-28T03:09:52.390Z,100.00
2023-04-28T03:12:19.411Z,100.00
2023-04-28T03:14:46.809Z,100.00
2023-04-28T03:17:14.335Z,100.00
2023-04-28T03:19:41.564Z,100.00
2023-04-28T03:22:08.699Z,100.00
2023-04-28T03:24:35.683Z,100.00
2023-04-28T03:27:04.042Z,100.00
2023-04-28T03:29:31.097Z,100.00
2023-04-28T03:31:58.182Z,100.00
2023-04-28T03:34:25.162Z,100.00
2023-04-28T03:36:52.192Z,100.00
2023-04-28T03:39:24.228Z,100.00
2023-04-28T03:41:51.248Z,100.00
2023-04-28T03:44:36.761Z,100.00
2023-04-28T03:47:03.946Z,100.00
2023-04-28T03:49:31.264Z,100.00
2023-04-28T03:51:58.393Z,100.00
2023-04-28T03:54:25.877Z,100.00
2023-04-28T03:56:52.894Z,100.00
2023-04-28T03:59:20.080Z,100.00
2023-04-28T04:01:47.154Z,100.00
2023-04-28T04:04:14.512Z,100.00
2023-04-28T04:06:42.032Z,100.00
2023-04-28T04:09:09.849Z,100.00
2023-04-28T04:11:37.884Z,100.00
2023-04-28T04:14:06.341Z,100.00
2023-04-28T04:16:33.535Z,100.00
2023-04-28T04:19:00.630Z,100.00
2023-04-28T04:21:56.846Z,100.00
2023-04-28T04:24:23.985Z,100.00
2023-04-28T04:26:51.222Z,100.00
2023-04-28T04:29:28.986Z,100.00
2023-04-28T04:31:56.587Z,100.00
2023-04-28T04:34:24.830Z,100.00
2023-04-28T04:36:53.498Z,100.00
2023-04-28T04:39:20.599Z,100.00
2023-04-28T04:41:47.820Z,100.00
2023-04-28T04:44:30.249Z,100.00
2023-04-28T04:46:58.937Z,100.00
2023-04-28T04:49:26.571Z,100.00
2023-04-28T04:51:54.557Z,100.00
2023-04-28T04:54:21.804Z,100.00
2023-04-28T04:56:50.829Z,100.00
2023-04-28T04:59:24.059Z,100.00
2023-04-28T05:02:06.860Z,100.00
2023-04-28T05:04:34.251Z,100.00
2023-04-28T05:07:02.047Z,100.00
2023-04-28T05:09:30.787Z,100.00
2023-04-28T05:11:58.090Z,100.00
2023-04-28T05:14:25.138Z,100.00
2023-04-28T05:16:52.460Z,100.00
2023-04-28T05:19:25.590Z,100.00
2023-04-28T05:21:56.459Z,100.00
2023-04-28T05:24:28.091Z,100.00
2023-04-28T05:26:56.403Z,100.00
2023-04-28T05:29:23.432Z,100.00
2023-04-28T05:31:51.191Z,100.00
2023-04-28T05:34:20.307Z,99.97
2023-04-28T05:36:47.328Z,100.00
2023-04-28T05:39:14.516Z,100.00
2023-04-28T05:41:41.663Z,99.98
2023-04-28T05:44:08.794Z,100.00
2023-04-28T05:46:36.998Z,99.85
2023-04-28T05:49:04.370Z,99.96
2023-04-28T05:51:34.327Z,99.99
2023-04-28T05:54:01.850Z,99.27
2023-04-28T05:56:29.480Z,99.30
2023-04-28T05:58:58.813Z,98.55
2023-04-28T06:01:26.403Z,98.42
2023-04-28T06:03:54.148Z,98.06
2023-04-28T06:06:21.951Z,98.29
2023-04-28T06:08:49.106Z,98.11
2023-04-28T06:11:16.266Z,97.27
2023-04-28T06:13:43.297Z,95.26
2023-04-28T06:16:10.866Z,94.95
2023-04-28T06:18:37.921Z,95.16
2023-04-28T06:21:04.935Z,93.91
2023-04-28T06:23:32.422Z,93.53
2023-04-28T06:25:59.571Z,93.71
2023-04-28T06:28:26.519Z,93.65
2023-04-28T06:30:53.547Z,93.14
2023-04-28T06:33:20.588Z,92.71
2023-04-28T06:35:47.611Z,92.52
2023-04-28T06:38:16.028Z,92.41
2023-04-28T06:40:43.186Z,90.89
2023-04-28T06:43:10.272Z,91.19
2023-04-28T06:45:46.702Z,91.26
2023-04-28T06:48:13.904Z,91.24
2023-04-28T06:50:43.506Z,91.11
2023-04-28T06:53:11.617Z,90.94
2023-04-28T06:55:38.653Z,89.68
2023-04-28T06:58:05.886Z,89.54
2023-04-28T07:00:34.849Z,89.59
2023-04-28T07:03:02.277Z,89.03
2023-04-28T07:05:30.129Z,88.61
2023-04-28T07:07:57.222Z,88.74
2023-04-28T07:10:25.208Z,88.88
2023-04-28T07:12:52.540Z,88.09
2023-04-28T07:15:19.563Z,87.46
2023-04-28T07:17:46.594Z,88.24
2023-04-28T07:20:14.746Z,88.75
2023-04-28T07:22:41.742Z,88.01
2023-04-28T07:25:09.513Z,86.87
2023-04-28T07:27:37.085Z,86.81
2023-04-28T07:30:14.825Z,86.72
2023-04-28T07:32:52.060Z,86.25
2023-04-28T07:35:19.301Z,86.77
2023-04-28T07:37:46.475Z,86.72
2023-04-28T07:40:13.618Z,86.67
2023-04-28T07:42:41.167Z,85.83
2023-04-28T07:45:08.639Z,85.04
2023-04-28T07:47:35.787Z,84.38
2023-04-28T07:50:06.562Z,81.08
2023-04-28T07:52:34.039Z,80.83
2023-04-28T07:55:01.255Z,81.08
2023-04-28T07:57:29.460Z,80.85
2023-04-28T07:59:56.681Z,80.78
2023-04-28T08:02:24.107Z,80.66
2023-04-28T08:04:51.504Z,80.46
2023-04-28T08:07:18.757Z,80.00
2023-04-28T08:09:47.824Z,80.03
2023-04-28T08:12:15.235Z,80.22
2023-04-28T08:14:42.360Z,79.51
2023-04-28T08:17:09.619Z,80.11
2023-04-28T08:19:36.817Z,79.60
2023-04-28T08:22:07.390Z,79.07
2023-04-28T08:24:34.824Z,76.46
2023-04-28T08:27:03.300Z,75.99
2023-04-28T08:29:31.902Z,75.46
2023-04-28T08:31:59.187Z,74.87
2023-04-28T08:34:26.503Z,71.78
2023-04-28T08:36:53.621Z,71.87
2023-04-28T08:39:22.251Z,72.17
2023-04-28T08:41:49.492Z,71.11
2023-04-28T08:44:17.676Z,70.44
2023-04-28T08:46:46.022Z,70.61
2023-04-28T08:49:15.072Z,70.15
2023-04-28T08:51:59.367Z,68.23
2023-04-28T08:54:32.234Z,68.37
2023-04-28T08:56:59.683Z,68.21
2023-04-28T08:59:26.714Z,67.03
2023-04-28T09:01:53.921Z,66.55
2023-04-28T09:04:21.930Z,66.53
2023-04-28T09:06:49.438Z,66.80
2023-04-28T09:09:23.543Z,66.31
2023-04-28T09:12:04.185Z,65.70
2023-04-28T09:14:33.236Z,64.60
2023-04-28T09:17:01.091Z,65.46
2023-04-28T09:19:36.350Z,65.04
2023-04-28T09:22:13.751Z,64.80
2023-04-28T09:24:50.870Z,65.05
2023-04-28T09:27:18.782Z,65.25
2023-04-28T09:29:53.624Z,63.19
2023-04-28T09:32:22.467Z,63.37
2023-04-28T09:34:54.173Z,64.07
2023-04-28T09:37:31.802Z,63.38
2023-04-28T09:40:10.061Z,62.97
2023-04-28T09:42:44.497Z,62.55
2023-04-28T09:45:15.784Z,62.87
2023-04-28T09:47:47.149Z,62.41
2023-04-28T09:50:17.512Z,62.57
2023-04-28T09:52:46.072Z,62.71
2023-04-28T09:55:13.125Z,61.84
2023-04-28T09:57:40.418Z,61.74
2023-04-28T10:00:09.450Z,62.23
2023-04-28T10:05:09.905Z,61.67
2023-04-28T10:07:37.851Z,61.12
2023-04-28T10:10:05.598Z,61.65
2023-04-28T10:12:32.707Z,62.25
2023-04-28T10:15:00.145Z,61.84
2023-04-28T10:17:29.837Z,62.18
2023-04-28T10:19:57.772Z,61.58
2023-04-28T10:22:43.682Z,61.33
2023-04-28T10:25:14.330Z,61.67
2023-04-28T10:27:45.980Z,62.15
2023-04-28T10:30:26.748Z,62.34
2023-04-28T10:33:14.411Z,61.62
2023-04-28T10:35:45.348Z,60.32
2023-04-28T10:38:16.421Z,60.04
2023-04-28T10:40:49.953Z,60.32
2023-04-28T10:43:27.274Z,60.22
2023-04-28T10:46:00.126Z,60.62
2023-04-28T10:48:27.171Z,59.76
2023-04-28T10:51:06.435Z,59.70
2023-04-28T10:53:46.107Z,60.30
2023-04-28T10:56:21.788Z,60.30
2023-04-28T10:58:50.777Z,59.22
2023-04-28T11:01:27.811Z,59.06
2023-04-28T11:04:15.974Z,58.70
2023-04-28T11:06:44.366Z,57.66
2023-04-28T11:09:21.182Z,57.92
2023-04-28T11:12:00.530Z,57.30
2023-04-28T11:14:31.655Z,57.41
2023-04-28T11:17:03.305Z,57.80
2023-04-28T11:19:34.167Z,57.59
2023-04-28T11:22:02.760Z,57.82
2023-04-28T11:24:30.381Z,56.47
2023-04-28T11:26:58.100Z,56.03
2023-04-28T11:29:36.201Z,55.52
2023-04-28T11:32:07.610Z,55.25
2023-04-28T11:34:35.147Z,56.32
2023-04-28T11:37:02.281Z,55.62
2023-04-28T11:39:30.440Z,56.29
2023-04-28T11:41:58.398Z,56.33
2023-04-28T11:44:27.334Z,56.35
2023-04-28T11:46:56.430Z,55.24
2023-04-28T11:49:30.886Z,55.93
2023-04-28T11:52:00.469Z,55.94
2023-04-28T11:54:29.165Z,56.58
2023-04-28T11:56:57.707Z,55.52
2023-04-28T11:59:31.233Z,55.14
2023-04-28T12:01:59.753Z,55.55
2023-04-28T12:04:36.868Z,54.47
2023-04-28T12:07:04.050Z,55.33
2023-04-28T12:09:31.510Z,54.14
2023-04-28T12:12:07.423Z,54.29
2023-04-28T12:15:01.640Z,54.41
2023-04-28T12:17:34.141Z,54.00
2023-04-28T12:20:02.643Z,54.37
2023-04-28T12:22:30.222Z,53.83
2023-04-28T12:25:07.955Z,53.85
2023-04-28T12:27:41.245Z,53.76
2023-04-28T12:30:20.826Z,53.76
2023-04-28T12:32:48.800Z,54.32
2023-04-28T12:35:16.270Z,53.91
2023-04-28T12:37:44.020Z,53.54
2023-04-28T12:40:11.671Z,52.69
2023-04-28T12:42:38.654Z,52.61
2023-04-28T12:45:07.033Z,52.37
2023-04-28T12:47:34.656Z,52.20
2023-04-28T12:50:01.691Z,52.69
2023-04-28T12:52:28.758Z,52.65
2023-04-28T12:54:55.872Z,52.18
2023-04-28T12:57:22.911Z,52.43
2023-04-28T12:59:52.364Z,52.42
2023-04-28T13:02:19.415Z,51.61
2023-04-28T13:04:47.259Z,51.78
2023-04-28T13:07:15.253Z,51.97
2023-04-28T13:09:46.192Z,52.98
2023-04-28T13:12:13.940Z,52.11
2023-04-28T13:14:41.140Z,52.26
2023-04-28T13:17:09.257Z,52.18
2023-04-28T13:19:36.783Z,52.40
2023-04-28T13:22:06.106Z,51.93
2023-04-28T13:24:36.300Z,52.25
2023-04-28T13:27:04.306Z,52.37
2023-04-28T13:29:31.365Z,52.41
2023-04-28T13:31:58.434Z,51.70
2023-04-28T13:34:25.592Z,51.55
2023-04-28T13:36:54.137Z,51.23
2023-04-28T13:39:22.254Z,51.79
2023-04-28T13:41:49.651Z,51.27
2023-04-28T13:44:16.920Z,51.46
2023-04-28T13:46:44.210Z,51.71
2023-04-28T13:49:11.436Z,51.62
2023-04-28T13:51:39.127Z,51.76
2023-04-28T13:54:09.261Z,52.06
2023-04-28T13:56:36.820Z,51.64
2023-04-28T13:59:03.974Z,51.86
2023-04-28T14:01:32.030Z,51.69
2023-04-28T14:03:59.806Z,51.85
2023-04-28T14:06:27.525Z,51.41
2023-04-28T14:08:54.716Z,51.65
2023-04-28T14:11:22.698Z,52.21
2023-04-28T14:13:49.830Z,52.26
2023-04-28T14:16:17.695Z,51.98
2023-04-28T14:18:44.978Z,52.29
2023-04-28T14:21:12.282Z,52.42
2023-04-28T14:23:39.586Z,52.98
2023-04-28T14:26:07.047Z,52.53
2023-04-28T14:28:34.074Z,52.52
2023-04-28T14:31:06.309Z,51.93
2023-04-28T14:33:33.485Z,51.56
2023-04-28T14:36:01.953Z,51.72
2023-04-28T14:38:30.757Z,51.73
2023-04-28T14:40:57.938Z,51.29
2023-04-28T14:43:25.121Z,51.61
2023-04-28T14:45:53.577Z,51.81
2023-04-28T14:48:20.984Z,51.82
2023-04-28T14:50:48.057Z,52.02
2023-04-28T14:53:15.468Z,52.46
2023-04-28T14:55:42.636Z,52.50
2023-04-28T14:58:09.612Z,52.39
2023-04-28T15:00:36.702Z,51.97
2023-04-28T15:03:04.256Z,51.79
2023-04-28T15:05:31.340Z,51.57
2023-04-28T15:07:59.042Z,51.66
2023-04-28T15:10:27.246Z,51.35
2023-04-28T15:12:54.229Z,51.38
2023-04-28T15:15:21.475Z,51.42
2023-04-28T15:17:48.608Z,51.37
2023-04-28T15:20:15.808Z,51.59
2023-04-28T15:22:44.868Z,51.86
2023-04-28T15:25:11.874Z,51.88
2023-04-28T15:27:39.179Z,51.79
2023-04-28T15:30:06.822Z,51.81
2023-04-28T15:32:34.180Z,51.73
2023-04-28T15:35:02.914Z,51.58
2023-04-28T15:37:40.968Z,51.55
2023-04-28T15:40:09.639Z,51.54
2023-04-28T15:42:38.153Z,51.09
2023-04-28T15:45:06.162Z,51.17
2023-04-28T15:47:33.446Z,52.16
2023-04-28T15:50:00.713Z,52.35
2023-04-28T15:52:27.937Z,52.66
2023-04-28T15:54:55.689Z,52.25
2023-04-28T15:57:22.803Z,52.62
2023-04-28T15:59:51.869Z,52.77
2023-04-28T16:02:22.501Z,52.68
2023-04-28T16:04:50.103Z,51.98
2023-04-28T16:07:19.154Z,52.03
2023-04-28T16:09:46.750Z,51.51
2023-04-28T16:12:13.934Z,51.21
2023-04-28T16:14:41.321Z,50.59
2023-04-28T16:17:08.417Z,50.20
2023-04-28T16:19:36.787Z,49.99
2023-04-28T16:22:04.082Z,50.08
2023-04-28T16:24:32.466Z,50.15
2023-04-28T16:26:59.640Z,50.20
2023-04-28T16:29:26.830Z,50.29
2023-04-28T16:31:53.967Z,50.32
2023-04-28T16:34:21.454Z,50.72
2023-04-28T16:36:49.263Z,50.99
2023-04-28T16:39:16.299Z,50.90
2023-04-28T16:41:51.272Z,50.53
2023-04-28T16:44:18.437Z,50.31
2023-04-28T16:46:45.622Z,50.02
2023-04-28T16:49:13.121Z,50.07
2023-04-28T16:51:40.128Z,49.98
2023-04-28T16:54:07.284Z,49.78
2023-04-28T16:56:36.145Z,49.39
2023-04-28T16:59:03.998Z,49.52
2023-04-28T17:01:34.164Z,49.53
2023-04-28T17:04:03.168Z,49.19
2023-04-28T17:06:30.464Z,49.22
2023-04-28T17:08:59.000Z,49.48
2023-04-28T17:11:26.962Z,49.29
2023-04-28T17:13:53.979Z,49.36
2023-04-28T17:16:21.193Z,49.72
2023-04-28T17:18:48.274Z,50.02
2023-04-28T17:21:15.409Z,50.31
2023-04-28T17:23:42.410Z,50.90
2023-04-28T17:26:09.523Z,50.92
2023-04-28T17:28:36.877Z,51.33
2023-04-28T17:31:05.126Z,51.05
2023-04-28T17:33:32.741Z,51.29
2023-04-28T17:35:59.773Z,51.14
2023-04-28T17:38:26.826Z,51.06
2023-04-28T17:40:53.844Z,51.87
2023-04-28T17:43:21.877Z,52.78
2023-04-28T17:45:48.982Z,53.20
2023-04-28T17:48:16.119Z,53.90
2023-04-28T17:50:43.411Z,54.38
2023-04-28T17:53:10.752Z,54.88
2023-04-28T17:55:37.849Z,55.23
2023-04-28T17:58:05.076Z,55.83
2023-04-28T18:00:32.144Z,56.17
2023-04-28T18:03:01.049Z,56.43
2023-04-28T18:05:30.517Z,56.65
2023-04-28T18:08:00.974Z,56.69
2023-04-28T18:10:29.590Z,56.89
2023-04-28T18:12:58.251Z,57.04
2023-04-28T18:15:26.037Z,57.24
2023-04-28T18:17:53.090Z,57.41
2023-04-28T18:20:20.191Z,57.40
2023-04-28T18:22:47.329Z,57.55
2023-04-28T18:25:16.881Z,57.59
2023-04-28T18:27:45.930Z,57.50
2023-04-28T18:30:13.369Z,57.48
2023-04-28T18:32:40.979Z,57.59
2023-04-28T18:35:08.383Z,57.70
2023-04-28T18:37:37.275Z,57.71
2023-04-28T18:40:04.647Z,57.78
2023-04-28T18:42:32.984Z,57.82
2023-04-28T18:45:00.450Z,57.70
2023-04-28T18:47:27.739Z,57.67
2023-04-28T18:49:55.202Z,57.65
2023-04-28T18:52:22.228Z,57.60
2023-04-28T18:54:49.786Z,57.71
2023-04-28T18:57:17.201Z,57.60
2023-04-28T18:59:45.545Z,57.62
2023-04-28T19:02:13.040Z,57.41
2023-04-28T19:04:42.383Z,57.40
2023-04-28T19:07:11.588Z,56.88
2023-04-28T19:09:39.018Z,57.11
2023-04-28T19:12:06.429Z,56.98
2023-04-28T19:14:34.045Z,57.33
2023-04-28T19:17:01.601Z,57.72
2023-04-28T19:19:29.198Z,57.76
2023-04-28T19:21:57.357Z,57.95
2023-04-28T19:24:24.588Z,58.08
2023-04-28T19:26:51.990Z,58.15
2023-04-28T19:29:20.225Z,58.31
2023-04-28T19:31:50.234Z,58.44
2023-04-28T19:34:18.326Z,58.55
2023-04-28T19:36:45.465Z,58.48
2023-04-28T19:39:12.596Z,58.24
2023-04-28T19:41:39.804Z,58.21
2023-04-28T19:44:06.853Z,58.10
2023-04-28T19:46:33.977Z,58.28
2023-04-28T19:49:01.463Z,58.16
2023-04-28T19:51:28.498Z,58.08
2023-04-28T19:53:55.912Z,57.84
2023-04-28T19:56:22.936Z,57.61
2023-04-28T19:58:50.216Z,57.52
2023-04-28T20:01:17.522Z,57.92
2023-04-28T20:03:49.796Z,57.74
2023-04-28T20:06:17.833Z,57.64
2023-04-28T20:08:45.999Z,57.77
2023-04-28T20:11:13.239Z,57.78
2023-04-28T20:13:40.271Z,57.86
2023-04-28T20:16:07.360Z,57.79
2023-04-28T20:18:35.692Z,58.20
2023-04-28T20:21:03.600Z,58.20
2023-04-28T20:23:30.677Z,58.25
2023-04-28T20:25:57.977Z,58.68
2023-04-28T20:28:25.065Z,58.42
2023-04-28T20:30:55.352Z,58.63
2023-04-28T20:33:22.400Z,58.84
2023-04-28T20:35:49.416Z,59.19
2023-04-28T20:38:16.917Z,59.19
2023-04-28T20:40:44.788Z,59.18
2023-04-28T20:43:11.867Z,59.13
2023-04-28T20:45:38.967Z,59.00
2023-04-28T20:48:06.184Z,58.89
2023-04-28T20:50:38.757Z,58.85
2023-04-28T20:53:06.100Z,58.71
2023-04-28T20:55:33.263Z,58.90
2023-04-28T20:58:00.253Z,58.55
2023-04-28T21:00:27.257Z,58.53
2023-04-28T21:02:54.402Z,58.46
2023-04-28T21:05:22.823Z,58.60
2023-04-28T21:07:50.016Z,58.66
2023-04-28T21:10:17.523Z,58.62
2023-04-28T21:12:45.596Z,58.80
2023-04-28T21:15:13.017Z,58.91
2023-04-28T21:17:40.223Z,59.26
2023-04-28T21:20:07.969Z,59.18
2023-04-28T21:22:35.105Z,59.19
2023-04-28T21:25:02.245Z,59.27
2023-04-28T21:27:29.272Z,59.08
2023-04-28T21:29:56.347Z,58.85
2023-04-28T21:32:23.430Z,58.98
2023-04-28T21:34:50.521Z,58.80
2023-04-28T21:37:17.625Z,58.72
2023-04-28T21:39:44.881Z,58.68
2023-04-28T21:42:12.015Z,58.57
2023-04-28T21:44:39.150Z,58.81
2023-04-28T21:47:09.251Z,58.74
2023-04-28T21:49:36.356Z,58.76
2023-04-28T21:52:05.113Z,58.95
2023-04-28T21:54:32.203Z,58.98
2023-04-28T21:56:59.238Z,59.19
2023-04-28T21:59:26.439Z,59.44
2023-04-28T22:01:53.588Z,59.60
2023-04-28T22:04:20.998Z,59.95
2023-04-28T22:06:48.189Z,60.07
2023-04-28T22:09:15.557Z,60.28
2023-04-28T22:11:42.766Z,60.45
2023-04-28T22:14:12.078Z,60.57
2023-04-28T22:16:42.496Z,60.77
2023-04-28T22:19:09.913Z,60.95
2023-04-28T22:21:37.001Z,61.05
2023-04-28T22:24:04.082Z,61.36
2023-04-28T22:26:34.930Z,61.62
2023-04-28T22:29:03.233Z,61.77
2023-04-28T22:31:30.354Z,61.86
2023-04-28T22:33:57.399Z,62.11
2023-04-28T22:36:24.549Z,62.10
2023-04-28T22:38:51.864Z,62.16
2023-04-28T22:41:19.010Z,62.18
2023-04-28T22:43:45.990Z,62.33
2023-04-28T22:46:12.981Z,62.18
2023-04-28T22:48:39.999Z,62.47
2023-04-28T22:51:07.227Z,62.08
2023-04-28T22:53:34.228Z,62.14
2023-04-28T22:56:03.185Z,62.46
2023-04-28T22:58:30.205Z,62.66
2023-04-28T23:01:00.669Z,62.73
2023-04-28T23:03:27.920Z,62.76
2023-04-28T23:05:55.057Z,62.85
2023-04-28T23:08:23.394Z,62.89
2023-04-28T23:10:50.522Z,62.83
2023-04-28T23:13:17.551Z,62.86
2023-04-28T23:15:44.546Z,62.85
2023-04-28T23:18:11.671Z,62.88
2023-04-28T23:20:38.634Z,62.97
2023-04-28T23:23:05.905Z,63.30
2023-04-28T23:25:32.884Z,63.28
2023-04-28T23:27:59.885Z,63.03
2023-04-28T23:30:27.011Z,62.88
2023-04-28T23:32:54.030Z,62.87
2023-04-28T23:35:21.170Z,63.00
2023-04-28T23:37:48.155Z,63.00
2023-04-28T23:40:15.547Z,62.82
2023-04-28T23:42:42.538Z,62.29
2023-04-28T23:45:10.026Z,62.17
2023-04-28T23:47:37.590Z,61.99
2023-04-28T23:50:05.117Z,61.54
2023-04-28T23:52:32.278Z,60.97
2023-04-28T23:54:59.808Z,60.67
2023-04-28T23:57:27.040Z,60.20
2023-04-28T23:59:54.336Z,59.98
